Mazama, WA

11:28 PM PDT on September 16, 2014 (GMT -0700)
Ephrata Municipal | Change Station
CLOSE
Current Station
Airport
Location: Ephrata,
Elevation: 1273 ft
Nearby Weather Stations

Elev 1273 ft 47.31 °N, 119.52 °W | Updated 35 minutes ago

Partly Cloudy
Partly Cloudy
67 °F
Feels Like 67 °F
N
0
Wind Variable Wind from North

Today
High -- | Low -- °F
--% Chance of Precip.
Yesterday
High -- | Low -- °F
Precip. -- in
6:39 AM 7:11 PM
Last Quarter, 39% visible
Pressure 29.74 in
Visibility 10.0 miles
Clouds Clear
Dew Point 43 °F
Humidity 42%
Rainfall 0.00 in
Snow Depth 0 in , 0 in , 0 in
UV 0 out of 12
Pollen 1.10 out of 12
Air Quality Not available.
Flu Activity Not available.
METAR KEPH 170553Z AUTO 00000KT 10SM CLR 19/06 A2977 RMK AO2 SLP071 T01940061 10306 20178 53005

More Conditions Fewer Conditions

Pressure 29.74 in
Visibility 10.0 miles
Clouds Clear
Dew Point 43 °F
Humidity 42%
Rainfall 0.00 in
Snow Depth 0 in , 0 in , 0 in
UV 0 out of 12
Pollen 1.10 out of 12
Air Quality Not available.
Flu Activity Not available.
METAR KEPH 170553Z AUTO 00000KT 10SM CLR 19/06 A2977 RMK AO2 SLP071 T01940061 10306 20178 53005

More Conditions Fewer Conditions

10-Day Weather Forecast

Almanac

Astronomy

Sep. 16, 2014 Rise Set
Actual Time 6:39 AM PDT 7:11 PM PDT
Civil Twilight 6:07 AM PDT 7:42 PM PDT
Nautical Twilight 5:29 AM PDT 8:20 PM PDT
Astronomical Twilight 4:50 AM PDT 8:59 PM PDT
Moon No Moon Rise 3:00 PM PDT (9/16)
Length of Visible Light 13h 35m
Length of Day
12h 32m
Tomorrow will be 3m 31s shorter.
Last Quarter, 39% of the Moon is Illuminated
Sep 17
Last Quarter
Sep 24
New
Oct 1
First Quarter
Oct 8
Full
Oct 15
Last Quarter

Yesterday's Extremes

State Highs State Lows

Community

WunderPhotos

Upload Photos

1,753,970 photos uploaded!

Nearby

Snow Depth

Station Depth Elevation
Touchet 0 in 5530 ft
Sasse Ridge 0 in 4200 ft
Fish Lake 0 in 3371 ft
Lost Horse 0 in 5000 ft
Pope Ridge 0 in 3540 ft

Earthquake Activity

City Distance Mag. Time & Date
No recent earthquake activity has been reported nearby.
Minimum magnitude displayed is 2.5.

Coastal Water Temperatures

Place Temperature
No Stations Reporting

Nearby Weather Stations